Terminal Aerodrome Forecast
Issued by NWS Denver/Boulder, CO

Home | Current Version | Previous Version | Text Only | Print | Product List | Glossary On
Versions: 1 2 3 4 5 6 7 8 9 10 11 12 13 14 15 16 17 18 19 20 21 22 23 24 25 26 27 28 29 30 31 32 33 34 35 36 37 38 39 40 41 42 43 44 45 46 47 48 49 50
000
FTUS45 KBOU 252010 AAB
TAFDEN
TAF AMD
KDEN 252010Z 2520/2624 32006KT P6SM SCT120 BKN160
     FM252100 27007KT P6SM VCTS SCT090CB BKN120
      TEMPO 2521/2601 VRB20G35KT -TSRA BKN080CB
     FM260300 30009KT P6SM VCSH FEW090 BKN150
     FM260900 35012KT P6SM SCT080 BKN120
     FM261200 36010KT P6SM BKN030 BKN090
     FM262000 04012KT P6SM BKN050 OVC070=

USA.gov is the U.S. government's official web portal to all federal, state and local government web resources and services.